sensor_id;sensor_type;location;lat;lon;timestamp;P1;durP1;ratioP1;P2;durP2;ratioP2
11522;SDS011;40093;43.224;27.910;2022-08-04T00:00:28;6.13;;;5.40;;
11522;SDS011;40093;43.224;27.910;2022-08-04T00:03:01;7.90;;;5.53;;
11522;SDS011;40093;43.224;27.910;2022-08-04T00:05:43;6.20;;;5.43;;
11522;SDS011;40093;43.224;27.910;2022-08-04T00:08:21;6.67;;;5.40;;
11522;SDS011;40093;43.224;27.910;2022-08-04T00:11:00;7.30;;;5.30;;
11522;SDS011;40093;43.224;27.910;2022-08-04T00:13:29;6.40;;;5.10;;
11522;SDS011;40093;43.224;27.910;2022-08-04T00:16:01;7.23;;;5.23;;
11522;SDS011;40093;43.224;27.910;2022-08-04T00:18:33;7.20;;;5.57;;
11522;SDS011;40093;43.224;27.910;2022-08-04T00:21:03;6.77;;;6.10;;
11522;SDS011;40093;43.224;27.910;2022-08-04T00:23:31;7.67;;;5.60;;
11522;SDS011;40093;43.224;27.910;2022-08-04T00:26:02;9.53;;;6.20;;
11522;SDS011;40093;43.224;27.910;2022-08-04T00:28:29;9.10;;;7.10;;
11522;SDS011;40093;43.224;27.910;2022-08-04T00:30:56;9.60;;;8.60;;
11522;SDS011;40093;43.224;27.910;2022-08-04T00:33:23;9.67;;;8.40;;
11522;SDS011;40093;43.224;27.910;2022-08-04T00:35:51;8.63;;;7.43;;
11522;SDS011;40093;43.224;27.910;2022-08-04T00:38:18;9.47;;;7.23;;
11522;SDS011;40093;43.224;27.910;2022-08-04T00:40:48;9.00;;;7.47;;
11522;SDS011;40093;43.224;27.910;2022-08-04T00:43:26;9.13;;;6.73;;
11522;SDS011;40093;43.224;27.910;2022-08-04T00:49:01;12.00;;;7.73;;
11522;SDS011;40093;43.224;27.910;2022-08-04T00:51:42;12.30;;;7.10;;
11522;SDS011;40093;43.224;27.910;2022-08-04T00:54:17;7.37;;;6.33;;
11522;SDS011;40093;43.224;27.910;2022-08-04T00:59:51;10.67;;;7.50;;
11522;SDS011;40093;43.224;27.910;2022-08-04T01:02:30;7.30;;;6.60;;
11522;SDS011;40093;43.224;27.910;2022-08-04T01:05:05;9.93;;;7.40;;
11522;SDS011;40093;43.224;27.910;2022-08-04T01:07:48;8.73;;;6.97;;
11522;SDS011;40093;43.224;27.910;2022-08-04T01:10:29;7.63;;;6.83;;
11522;SDS011;40093;43.224;27.910;2022-08-04T01:13:18;10.00;;;6.53;;
11522;SDS011;40093;43.224;27.910;2022-08-04T01:16:08;9.60;;;6.80;;
11522;SDS011;40093;43.224;27.910;2022-08-04T01:18:39;11.93;;;6.70;;
11522;SDS011;40093;43.224;27.910;2022-08-04T01:21:24;9.13;;;6.80;;
11522;SDS011;40093;43.224;27.910;2022-08-04T01:24:24;11.57;;;7.90;;
11522;SDS011;40093;43.224;27.910;2022-08-04T01:26:56;11.93;;;9.10;;
11522;SDS011;40093;43.224;27.910;2022-08-04T01:29:32;16.60;;;10.70;;
11522;SDS011;40093;43.224;27.910;2022-08-04T01:32:01;12.13;;;9.30;;
11522;SDS011;40093;43.224;27.910;2022-08-04T01:34:33;14.60;;;9.30;;
11522;SDS011;40093;43.224;27.910;2022-08-04T01:37:09;13.90;;;10.17;;
11522;SDS011;40093;43.224;27.910;2022-08-04T01:39:41;17.17;;;11.80;;
11522;SDS011;40093;43.224;27.910;2022-08-04T01:42:17;17.27;;;10.67;;
11522;SDS011;40093;43.224;27.910;2022-08-04T01:44:48;13.77;;;9.90;;
11522;SDS011;40093;43.224;27.910;2022-08-04T01:47:16;13.20;;;10.60;;
11522;SDS011;40093;43.224;27.910;2022-08-04T01:49:48;16.43;;;9.43;;
11522;SDS011;40093;43.224;27.910;2022-08-04T01:52:16;13.07;;;9.53;;
11522;SDS011;40093;43.224;27.910;2022-08-04T01:54:44;11.53;;;8.97;;
11522;SDS011;40093;43.224;27.910;2022-08-04T01:57:13;16.23;;;9.50;;
11522;SDS011;40093;43.224;27.910;2022-08-04T01:59:44;18.67;;;9.40;;
11522;SDS011;40093;43.224;27.910;2022-08-04T02:02:14;12.47;;;8.47;;
11522;SDS011;40093;43.224;27.910;2022-08-04T02:04:41;13.47;;;9.43;;
11522;SDS011;40093;43.224;27.910;2022-08-04T02:07:18;14.40;;;9.47;;
11522;SDS011;40093;43.224;27.910;2022-08-04T02:09:58;16.70;;;9.07;;
11522;SDS011;40093;43.224;27.910;2022-08-04T02:12:33;15.70;;;9.20;;
11522;SDS011;40093;43.224;27.910;2022-08-04T02:15:11;15.00;;;10.23;;
11522;SDS011;40093;43.224;27.910;2022-08-04T02:17:45;14.07;;;9.60;;
11522;SDS011;40093;43.224;27.910;2022-08-04T02:20:22;21.00;;;12.17;;
11522;SDS011;40093;43.224;27.910;2022-08-04T02:22:52;16.43;;;8.90;;
11522;SDS011;40093;43.224;27.910;2022-08-04T02:25:25;19.17;;;10.07;;
11522;SDS011;40093;43.224;27.910;2022-08-04T02:30:43;13.50;;;8.70;;
11522;SDS011;40093;43.224;27.910;2022-08-04T02:33:24;12.60;;;9.83;;
11522;SDS011;40093;43.224;27.910;2022-08-04T02:35:58;13.23;;;9.10;;
11522;SDS011;40093;43.224;27.910;2022-08-04T02:38:31;14.53;;;9.40;;
11522;SDS011;40093;43.224;27.910;2022-08-04T02:41:12;12.93;;;9.53;;
11522;SDS011;40093;43.224;27.910;2022-08-04T02:43:42;19.33;;;10.77;;
11522;SDS011;40093;43.224;27.910;2022-08-04T02:46:12;17.43;;;10.40;;
11522;SDS011;40093;43.224;27.910;2022-08-04T02:48:42;12.90;;;10.07;;
11522;SDS011;40093;43.224;27.910;2022-08-04T02:51:13;16.20;;;11.13;;
11522;SDS011;40093;43.224;27.910;2022-08-04T02:53:44;14.67;;;10.30;;
11522;SDS011;40093;43.224;27.910;2022-08-04T02:56:12;14.53;;;10.47;;
11522;SDS011;40093;43.224;27.910;2022-08-04T02:58:44;21.07;;;12.13;;
11522;SDS011;40093;43.224;27.910;2022-08-04T03:01:14;17.80;;;11.20;;
11522;SDS011;40093;43.224;27.910;2022-08-04T03:03:45;17.03;;;12.00;;
11522;SDS011;40093;43.224;27.910;2022-08-04T03:06:27;12.80;;;11.07;;
11522;SDS011;40093;43.224;27.910;2022-08-04T03:09:25;16.13;;;12.13;;
11522;SDS011;40093;43.224;27.910;2022-08-04T03:12:25;15.97;;;10.10;;
11522;SDS011;40093;43.224;27.910;2022-08-04T03:15:21;16.03;;;10.50;;
11522;SDS011;40093;43.224;27.910;2022-08-04T03:18:20;18.60;;;12.03;;
11522;SDS011;40093;43.224;27.910;2022-08-04T03:21:06;15.93;;;10.73;;
11522;SDS011;40093;43.224;27.910;2022-08-04T03:24:09;18.73;;;10.43;;
11522;SDS011;40093;43.224;27.910;2022-08-04T03:27:08;13.63;;;10.47;;
11522;SDS011;40093;43.224;27.910;2022-08-04T03:29:49;14.00;;;10.40;;
11522;SDS011;40093;43.224;27.910;2022-08-04T03:32:53;17.27;;;11.17;;
11522;SDS011;40093;43.224;27.910;2022-08-04T03:36:04;17.40;;;8.30;;
11522;SDS011;40093;43.224;27.910;2022-08-04T03:39:13;14.90;;;9.23;;
11522;SDS011;40093;43.224;27.910;2022-08-04T03:42:06;17.37;;;9.30;;
11522;SDS011;40093;43.224;27.910;2022-08-04T03:50:56;16.17;;;7.60;;
11522;SDS011;40093;43.224;27.910;2022-08-04T03:53:55;16.37;;;7.23;;
11522;SDS011;40093;43.224;27.910;2022-08-04T03:56:55;15.20;;;6.50;;
11522;SDS011;40093;43.224;27.910;2022-08-04T03:59:48;9.33;;;6.60;;
11522;SDS011;40093;43.224;27.910;2022-08-04T04:12:16;11.80;;;7.73;;
11522;SDS011;40093;43.224;27.910;2022-08-04T04:14:56;8.67;;;7.33;;
11522;SDS011;40093;43.224;27.910;2022-08-04T04:17:44;8.03;;;6.10;;
11522;SDS011;40093;43.224;27.910;2022-08-04T04:20:32;8.77;;;5.07;;
11522;SDS011;40093;43.224;27.910;2022-08-04T04:26:26;7.17;;;5.03;;
11522;SDS011;40093;43.224;27.910;2022-08-04T04:32:41;4.63;;;4.23;;
11522;SDS011;40093;43.224;27.910;2022-08-04T04:35:30;7.57;;;4.67;;
11522;SDS011;40093;43.224;27.910;2022-08-04T04:38:14;4.80;;;4.30;;
11522;SDS011;40093;43.224;27.910;2022-08-04T04:41:04;4.77;;;3.93;;
11522;SDS011;40093;43.224;27.910;2022-08-04T04:46:49;23.03;;;7.00;;
11522;SDS011;40093;43.224;27.910;2022-08-04T04:49:27;16.00;;;6.20;;
11522;SDS011;40093;43.224;27.910;2022-08-04T04:52:02;8.70;;;4.80;;
11522;SDS011;40093;43.224;27.910;2022-08-04T04:54:36;5.80;;;4.70;;
11522;SDS011;40093;43.224;27.910;2022-08-04T04:57:10;14.27;;;4.63;;
11522;SDS011;40093;43.224;27.910;2022-08-04T04:59:43;7.00;;;4.47;;
11522;SDS011;40093;43.224;27.910;2022-08-04T05:02:31;7.50;;;4.50;;
11522;SDS011;40093;43.224;27.910;2022-08-04T05:05:10;8.03;;;4.43;;
11522;SDS011;40093;43.224;27.910;2022-08-04T05:07:56;5.70;;;4.60;;
11522;SDS011;40093;43.224;27.910;2022-08-04T05:10:45;9.37;;;4.50;;
11522;SDS011;40093;43.224;27.910;2022-08-04T05:16:13;6.03;;;4.03;;
11522;SDS011;40093;43.224;27.910;2022-08-04T05:18:43;5.23;;;4.10;;
11522;SDS011;40093;43.224;27.910;2022-08-04T05:21:32;6.17;;;4.10;;
11522;SDS011;40093;43.224;27.910;2022-08-04T05:24:05;5.37;;;4.07;;
11522;SDS011;40093;43.224;27.910;2022-08-04T05:26:38;4.37;;;3.97;;
11522;SDS011;40093;43.224;27.910;2022-08-04T05:29:10;7.70;;;3.90;;
11522;SDS011;40093;43.224;27.910;2022-08-04T05:31:45;6.13;;;4.00;;
11522;SDS011;40093;43.224;27.910;2022-08-04T05:34:19;6.10;;;4.00;;
11522;SDS011;40093;43.224;27.910;2022-08-04T05:36:58;4.43;;;4.00;;
11522;SDS011;40093;43.224;27.910;2022-08-04T05:39:28;4.53;;;4.00;;
11522;SDS011;40093;43.224;27.910;2022-08-04T05:41:59;4.23;;;3.80;;
11522;SDS011;40093;43.224;27.910;2022-08-04T05:44:27;5.30;;;4.20;;
11522;SDS011;40093;43.224;27.910;2022-08-04T05:46:55;4.20;;;3.80;;
11522;SDS011;40093;43.224;27.910;2022-08-04T05:49:24;4.70;;;4.23;;
11522;SDS011;40093;43.224;27.910;2022-08-04T05:51:54;7.90;;;4.10;;
11522;SDS011;40093;43.224;27.910;2022-08-04T05:54:24;4.90;;;3.90;;
11522;SDS011;40093;43.224;27.910;2022-08-04T05:56:53;6.43;;;4.00;;
11522;SDS011;40093;43.224;27.910;2022-08-04T05:59:21;4.63;;;4.00;;
11522;SDS011;40093;43.224;27.910;2022-08-04T06:01:49;6.63;;;4.23;;
11522;SDS011;40093;43.224;27.910;2022-08-04T06:04:18;6.23;;;4.47;;
11522;SDS011;40093;43.224;27.910;2022-08-04T06:06:48;4.87;;;4.20;;
11522;SDS011;40093;43.224;27.910;2022-08-04T06:09:17;4.70;;;3.73;;
11522;SDS011;40093;43.224;27.910;2022-08-04T06:11:44;4.23;;;3.90;;
11522;SDS011;40093;43.224;27.910;2022-08-04T06:14:13;5.33;;;4.30;;
11522;SDS011;40093;43.224;27.910;2022-08-04T06:16:42;5.13;;;4.13;;
11522;SDS011;40093;43.224;27.910;2022-08-04T06:19:11;4.90;;;4.40;;
11522;SDS011;40093;43.224;27.910;2022-08-04T06:21:41;4.70;;;4.23;;
11522;SDS011;40093;43.224;27.910;2022-08-04T06:24:14;6.00;;;4.00;;
11522;SDS011;40093;43.224;27.910;2022-08-04T06:26:45;9.80;;;4.57;;
11522;SDS011;40093;43.224;27.910;2022-08-04T06:29:16;4.93;;;4.43;;
11522;SDS011;40093;43.224;27.910;2022-08-04T06:31:49;5.43;;;4.40;;
11522;SDS011;40093;43.224;27.910;2022-08-04T06:34:23;8.20;;;4.63;;
11522;SDS011;40093;43.224;27.910;2022-08-04T06:36:52;4.97;;;4.43;;
11522;SDS011;40093;43.224;27.910;2022-08-04T06:39:20;4.70;;;4.30;;
11522;SDS011;40093;43.224;27.910;2022-08-04T06:41:51;5.17;;;4.67;;
11522;SDS011;40093;43.224;27.910;2022-08-04T06:44:19;5.23;;;4.47;;
11522;SDS011;40093;43.224;27.910;2022-08-04T06:46:47;4.97;;;4.47;;
11522;SDS011;40093;43.224;27.910;2022-08-04T06:49:16;6.13;;;4.37;;
11522;SDS011;40093;43.224;27.910;2022-08-04T06:51:44;5.80;;;5.00;;
11522;SDS011;40093;43.224;27.910;2022-08-04T06:54:12;5.23;;;4.43;;
11522;SDS011;40093;43.224;27.910;2022-08-04T06:56:39;5.83;;;4.60;;
11522;SDS011;40093;43.224;27.910;2022-08-04T06:59:10;6.93;;;4.20;;
11522;SDS011;40093;43.224;27.910;2022-08-04T07:01:38;4.87;;;4.20;;
11522;SDS011;40093;43.224;27.910;2022-08-04T07:04:07;5.43;;;4.50;;
11522;SDS011;40093;43.224;27.910;2022-08-04T07:06:34;7.67;;;4.30;;
11522;SDS011;40093;43.224;27.910;2022-08-04T07:09:02;4.70;;;4.23;;
11522;SDS011;40093;43.224;27.910;2022-08-04T07:11:29;7.00;;;4.57;;
11522;SDS011;40093;43.224;27.910;2022-08-04T07:13:58;5.60;;;4.13;;
11522;SDS011;40093;43.224;27.910;2022-08-04T07:16:28;8.77;;;4.53;;
11522;SDS011;40093;43.224;27.910;2022-08-04T07:18:56;5.43;;;4.23;;
11522;SDS011;40093;43.224;27.910;2022-08-04T07:21:23;4.50;;;4.10;;
11522;SDS011;40093;43.224;27.910;2022-08-04T07:23:51;6.33;;;4.80;;
11522;SDS011;40093;43.224;27.910;2022-08-04T07:26:19;5.00;;;4.50;;
11522;SDS011;40093;43.224;27.910;2022-08-04T07:28:52;5.00;;;4.50;;
11522;SDS011;40093;43.224;27.910;2022-08-04T07:31:21;4.87;;;4.40;;
11522;SDS011;40093;43.224;27.910;2022-08-04T07:33:50;5.10;;;4.27;;
11522;SDS011;40093;43.224;27.910;2022-08-04T07:36:20;6.60;;;5.30;;
11522;SDS011;40093;43.224;27.910;2022-08-04T07:38:47;8.37;;;5.00;;
11522;SDS011;40093;43.224;27.910;2022-08-04T07:41:14;7.43;;;4.70;;
11522;SDS011;40093;43.224;27.910;2022-08-04T07:43:46;4.83;;;4.30;;
11522;SDS011;40093;43.224;27.910;2022-08-04T07:46:13;5.87;;;5.10;;
11522;SDS011;40093;43.224;27.910;2022-08-04T07:48:40;5.47;;;4.90;;
11522;SDS011;40093;43.224;27.910;2022-08-04T07:51:10;6.13;;;4.90;;
11522;SDS011;40093;43.224;27.910;2022-08-04T07:53:37;17.03;;;5.50;;
11522;SDS011;40093;43.224;27.910;2022-08-04T07:56:05;7.87;;;4.57;;
11522;SDS011;40093;43.224;27.910;2022-08-04T07:58:32;6.63;;;4.50;;
11522;SDS011;40093;43.224;27.910;2022-08-04T08:01:00;5.07;;;4.57;;
11522;SDS011;40093;43.224;27.910;2022-08-04T08:03:27;7.43;;;4.70;;
11522;SDS011;40093;43.224;27.910;2022-08-04T08:05:54;9.40;;;5.20;;
11522;SDS011;40093;43.224;27.910;2022-08-04T08:08:22;5.67;;;4.77;;
11522;SDS011;40093;43.224;27.910;2022-08-04T08:10:49;5.57;;;4.67;;
11522;SDS011;40093;43.224;27.910;2022-08-04T08:13:19;6.60;;;4.60;;
11522;SDS011;40093;43.224;27.910;2022-08-04T08:15:46;5.23;;;4.73;;
11522;SDS011;40093;43.224;27.910;2022-08-04T08:18:14;5.37;;;4.53;;
11522;SDS011;40093;43.224;27.910;2022-08-04T08:20:43;8.03;;;5.00;;
11522;SDS011;40093;43.224;27.910;2022-08-04T08:23:11;5.30;;;4.77;;
11522;SDS011;40093;43.224;27.910;2022-08-04T08:25:40;5.43;;;4.53;;
11522;SDS011;40093;43.224;27.910;2022-08-04T08:28:07;8.70;;;4.60;;
11522;SDS011;40093;43.224;27.910;2022-08-04T08:30:34;9.03;;;4.77;;
11522;SDS011;40093;43.224;27.910;2022-08-04T08:33:02;5.27;;;4.57;;
11522;SDS011;40093;43.224;27.910;2022-08-04T08:35:33;7.53;;;4.63;;
11522;SDS011;40093;43.224;27.910;2022-08-04T08:38:07;6.40;;;4.80;;
11522;SDS011;40093;43.224;27.910;2022-08-04T08:40:39;4.97;;;4.47;;
11522;SDS011;40093;43.224;27.910;2022-08-04T08:43:22;6.03;;;4.57;;
11522;SDS011;40093;43.224;27.910;2022-08-04T08:49:01;7.10;;;4.67;;
11522;SDS011;40093;43.224;27.910;2022-08-04T08:51:44;6.87;;;5.10;;
11522;SDS011;40093;43.224;27.910;2022-08-04T08:54:23;5.13;;;4.63;;
11522;SDS011;40093;43.224;27.910;2022-08-04T08:57:14;4.60;;;4.20;;
11522;SDS011;40093;43.224;27.910;2022-08-04T08:59:53;5.20;;;4.70;;
11522;SDS011;40093;43.224;27.910;2022-08-04T09:02:43;5.13;;;4.60;;
11522;SDS011;40093;43.224;27.910;2022-08-04T09:05:30;5.00;;;4.57;;
11522;SDS011;40093;43.224;27.910;2022-08-04T09:08:18;6.73;;;4.33;;
11522;SDS011;40093;43.224;27.910;2022-08-04T09:10:55;6.87;;;4.73;;
11522;SDS011;40093;43.224;27.910;2022-08-04T09:13:31;5.40;;;4.47;;
11522;SDS011;40093;43.224;27.910;2022-08-04T09:16:05;7.27;;;4.53;;
11522;SDS011;40093;43.224;27.910;2022-08-04T09:18:40;7.97;;;4.57;;
11522;SDS011;40093;43.224;27.910;2022-08-04T09:21:12;11.20;;;10.10;;
11522;SDS011;40093;43.224;27.910;2022-08-04T09:23:47;5.77;;;5.00;;
11522;SDS011;40093;43.224;27.910;2022-08-04T09:26:26;25.97;;;19.37;;
11522;SDS011;40093;43.224;27.910;2022-08-04T09:29:02;27.07;;;20.53;;
11522;SDS011;40093;43.224;27.910;2022-08-04T09:31:34;16.83;;;12.07;;
11522;SDS011;40093;43.224;27.910;2022-08-04T09:34:12;10.93;;;6.50;;
11522;SDS011;40093;43.224;27.910;2022-08-04T09:36:50;10.03;;;7.43;;
11522;SDS011;40093;43.224;27.910;2022-08-04T09:39:27;7.40;;;4.73;;
11522;SDS011;40093;43.224;27.910;2022-08-04T09:42:02;5.37;;;4.43;;
11522;SDS011;40093;43.224;27.910;2022-08-04T09:44:45;5.10;;;4.50;;
11522;SDS011;40093;43.224;27.910;2022-08-04T09:47:21;6.23;;;4.30;;
11522;SDS011;40093;43.224;27.910;2022-08-04T09:49:57;5.50;;;4.50;;
11522;SDS011;40093;43.224;27.910;2022-08-04T09:52:31;4.93;;;4.43;;
11522;SDS011;40093;43.224;27.910;2022-08-04T09:55:08;5.33;;;4.30;;
11522;SDS011;40093;43.224;27.910;2022-08-04T09:57:44;6.43;;;4.57;;
11522;SDS011;40093;43.224;27.910;2022-08-04T10:00:20;6.07;;;4.47;;
11522;SDS011;40093;43.224;27.910;2022-08-04T10:02:49;5.13;;;4.30;;
11522;SDS011;40093;43.224;27.910;2022-08-04T10:05:19;6.57;;;4.60;;
11522;SDS011;40093;43.224;27.910;2022-08-04T10:07:56;4.80;;;4.40;;
11522;SDS011;40093;43.224;27.910;2022-08-04T10:10:35;6.47;;;4.47;;
11522;SDS011;40093;43.224;27.910;2022-08-04T10:13:17;5.50;;;5.00;;
11522;SDS011;40093;43.224;27.910;2022-08-04T10:15:57;5.60;;;5.10;;
11522;SDS011;40093;43.224;27.910;2022-08-04T10:18:39;6.53;;;5.13;;
11522;SDS011;40093;43.224;27.910;2022-08-04T10:21:15;5.70;;;5.20;;
11522;SDS011;40093;43.224;27.910;2022-08-04T10:23:51;5.57;;;5.00;;
11522;SDS011;40093;43.224;27.910;2022-08-04T10:26:34;7.17;;;5.70;;
11522;SDS011;40093;43.224;27.910;2022-08-04T10:29:09;7.30;;;5.33;;
11522;SDS011;40093;43.224;27.910;2022-08-04T10:31:44;7.03;;;5.20;;
11522;SDS011;40093;43.224;27.910;2022-08-04T10:34:20;9.03;;;5.33;;
11522;SDS011;40093;43.224;27.910;2022-08-04T10:36:52;6.03;;;5.47;;
11522;SDS011;40093;43.224;27.910;2022-08-04T10:39:25;6.87;;;5.10;;
11522;SDS011;40093;43.224;27.910;2022-08-04T10:42:01;6.27;;;5.67;;
11522;SDS011;40093;43.224;27.910;2022-08-04T10:44:36;6.27;;;5.60;;
11522;SDS011;40093;43.224;27.910;2022-08-04T10:47:15;6.07;;;5.57;;
11522;SDS011;40093;43.224;27.910;2022-08-04T10:49:44;8.13;;;5.50;;
11522;SDS011;40093;43.224;27.910;2022-08-04T10:52:17;7.33;;;5.50;;
11522;SDS011;40093;43.224;27.910;2022-08-04T10:54:50;9.93;;;5.67;;
11522;SDS011;40093;43.224;27.910;2022-08-04T10:57:25;9.27;;;6.00;;
11522;SDS011;40093;43.224;27.910;2022-08-04T10:59:59;8.87;;;6.37;;
11522;SDS011;40093;43.224;27.910;2022-08-04T11:02:40;8.43;;;6.00;;
11522;SDS011;40093;43.224;27.910;2022-08-04T11:05:14;9.17;;;6.10;;
11522;SDS011;40093;43.224;27.910;2022-08-04T11:07:48;7.20;;;6.30;;
11522;SDS011;40093;43.224;27.910;2022-08-04T11:10:18;8.13;;;6.30;;
11522;SDS011;40093;43.224;27.910;2022-08-04T11:12:48;9.20;;;6.50;;
11522;SDS011;40093;43.224;27.910;2022-08-04T11:15:22;8.13;;;6.60;;
11522;SDS011;40093;43.224;27.910;2022-08-04T11:17:58;7.50;;;6.60;;
11522;SDS011;40093;43.224;27.910;2022-08-04T11:20:34;8.00;;;6.40;;
11522;SDS011;40093;43.224;27.910;2022-08-04T11:23:08;6.93;;;6.33;;
11522;SDS011;40093;43.224;27.910;2022-08-04T11:25:43;7.93;;;6.17;;
11522;SDS011;40093;43.224;27.910;2022-08-04T11:28:18;6.80;;;6.07;;
11522;SDS011;40093;43.224;27.910;2022-08-04T11:30:51;8.53;;;5.90;;
11522;SDS011;40093;43.224;27.910;2022-08-04T11:33:26;6.87;;;5.90;;
11522;SDS011;40093;43.224;27.910;2022-08-04T11:36:02;6.63;;;5.60;;
11522;SDS011;40093;43.224;27.910;2022-08-04T11:38:36;7.90;;;6.10;;
11522;SDS011;40093;43.224;27.910;2022-08-04T11:41:15;7.07;;;6.00;;
11522;SDS011;40093;43.224;27.910;2022-08-04T11:43:48;7.10;;;5.93;;
11522;SDS011;40093;43.224;27.910;2022-08-04T11:46:22;7.67;;;5.83;;
11522;SDS011;40093;43.224;27.910;2022-08-04T11:48:55;6.97;;;5.73;;
11522;SDS011;40093;43.224;27.910;2022-08-04T11:51:26;8.70;;;6.20;;
11522;SDS011;40093;43.224;27.910;2022-08-04T11:53:54;7.10;;;6.17;;
11522;SDS011;40093;43.224;27.910;2022-08-04T11:56:23;6.77;;;6.13;;
11522;SDS011;40093;43.224;27.910;2022-08-04T11:58:50;8.93;;;6.20;;
11522;SDS011;40093;43.224;27.910;2022-08-04T12:01:20;7.57;;;6.27;;
11522;SDS011;40093;43.224;27.910;2022-08-04T12:04:01;9.10;;;6.80;;
11522;SDS011;40093;43.224;27.910;2022-08-04T12:06:31;7.20;;;6.33;;
11522;SDS011;40093;43.224;27.910;2022-08-04T12:09:08;6.90;;;6.20;;
11522;SDS011;40093;43.224;27.910;2022-08-04T12:11:47;7.73;;;5.83;;
11522;SDS011;40093;43.224;27.910;2022-08-04T12:14:25;8.73;;;6.07;;
11522;SDS011;40093;43.224;27.910;2022-08-04T12:16:59;6.57;;;5.97;;
11522;SDS011;40093;43.224;27.910;2022-08-04T12:19:34;7.00;;;6.37;;
11522;SDS011;40093;43.224;27.910;2022-08-04T12:22:09;8.67;;;6.07;;
11522;SDS011;40093;43.224;27.910;2022-08-04T12:24:41;9.13;;;5.87;;
11522;SDS011;40093;43.224;27.910;2022-08-04T12:27:12;7.27;;;5.90;;
11522;SDS011;40093;43.224;27.910;2022-08-04T12:29:43;6.60;;;6.00;;
11522;SDS011;40093;43.224;27.910;2022-08-04T12:32:16;7.10;;;6.00;;
11522;SDS011;40093;43.224;27.910;2022-08-04T12:34:48;6.93;;;6.13;;
11522;SDS011;40093;43.224;27.910;2022-08-04T12:37:33;6.57;;;5.93;;
11522;SDS011;40093;43.224;27.910;2022-08-04T12:40:20;6.70;;;6.10;;
11522;SDS011;40093;43.224;27.910;2022-08-04T12:42:52;6.70;;;6.10;;
11522;SDS011;40093;43.224;27.910;2022-08-04T12:45:26;6.90;;;6.20;;
11522;SDS011;40093;43.224;27.910;2022-08-04T12:47:55;7.17;;;6.37;;
11522;SDS011;40093;43.224;27.910;2022-08-04T12:50:25;8.63;;;6.27;;
11522;SDS011;40093;43.224;27.910;2022-08-04T12:52:53;6.97;;;6.17;;
11522;SDS011;40093;43.224;27.910;2022-08-04T12:55:24;7.47;;;6.70;;
11522;SDS011;40093;43.224;27.910;2022-08-04T12:57:53;7.90;;;7.20;;
11522;SDS011;40093;43.224;27.910;2022-08-04T13:00:23;7.33;;;6.70;;
11522;SDS011;40093;43.224;27.910;2022-08-04T13:02:51;6.87;;;6.20;;
11522;SDS011;40093;43.224;27.910;2022-08-04T13:05:20;8.60;;;6.57;;
11522;SDS011;40093;43.224;27.910;2022-08-04T13:07:49;7.20;;;6.50;;
11522;SDS011;40093;43.224;27.910;2022-08-04T13:10:19;7.23;;;5.93;;
11522;SDS011;40093;43.224;27.910;2022-08-04T13:12:51;8.00;;;6.30;;
11522;SDS011;40093;43.224;27.910;2022-08-04T13:15:22;7.03;;;6.33;;
11522;SDS011;40093;43.224;27.910;2022-08-04T13:17:52;7.47;;;6.73;;
11522;SDS011;40093;43.224;27.910;2022-08-04T13:20:24;6.93;;;6.33;;
11522;SDS011;40093;43.224;27.910;2022-08-04T13:23:04;7.57;;;6.57;;
11522;SDS011;40093;43.224;27.910;2022-08-04T13:25:32;7.00;;;6.40;;
11522;SDS011;40093;43.224;27.910;2022-08-04T13:28:00;7.17;;;6.47;;
11522;SDS011;40093;43.224;27.910;2022-08-04T13:30:30;7.47;;;6.70;;
11522;SDS011;40093;43.224;27.910;2022-08-04T13:32:59;8.50;;;6.87;;
11522;SDS011;40093;43.224;27.910;2022-08-04T13:35:27;9.13;;;6.80;;
11522;SDS011;40093;43.224;27.910;2022-08-04T13:37:56;8.13;;;6.80;;
11522;SDS011;40093;43.224;27.910;2022-08-04T13:40:26;7.60;;;6.90;;
11522;SDS011;40093;43.224;27.910;2022-08-04T13:42:53;6.90;;;6.30;;
11522;SDS011;40093;43.224;27.910;2022-08-04T13:45:22;7.30;;;6.60;;
11522;SDS011;40093;43.224;27.910;2022-08-04T13:47:55;7.13;;;6.33;;
11522;SDS011;40093;43.224;27.910;2022-08-04T13:50:25;7.67;;;6.50;;
11522;SDS011;40093;43.224;27.910;2022-08-04T13:52:54;6.97;;;6.37;;
11522;SDS011;40093;43.224;27.910;2022-08-04T13:55:23;11.13;;;6.70;;
11522;SDS011;40093;43.224;27.910;2022-08-04T13:58:01;7.97;;;6.83;;
11522;SDS011;40093;43.224;27.910;2022-08-04T14:00:38;7.63;;;6.57;;
11522;SDS011;40093;43.224;27.910;2022-08-04T14:03:08;7.37;;;6.63;;
11522;SDS011;40093;43.224;27.910;2022-08-04T14:05:36;8.67;;;6.90;;
11522;SDS011;40093;43.224;27.910;2022-08-04T14:08:05;6.60;;;5.93;;
11522;SDS011;40093;43.224;27.910;2022-08-04T14:10:35;6.87;;;6.27;;
11522;SDS011;40093;43.224;27.910;2022-08-04T14:13:03;8.50;;;6.53;;
11522;SDS011;40093;43.224;27.910;2022-08-04T14:15:34;7.60;;;6.90;;
11522;SDS011;40093;43.224;27.910;2022-08-04T14:18:16;9.17;;;6.50;;
11522;SDS011;40093;43.224;27.910;2022-08-04T14:20:57;7.23;;;6.50;;
11522;SDS011;40093;43.224;27.910;2022-08-04T14:23:29;8.63;;;6.37;;
11522;SDS011;40093;43.224;27.910;2022-08-04T14:26:13;7.20;;;6.50;;
11522;SDS011;40093;43.224;27.910;2022-08-04T14:28:41;8.03;;;6.60;;
11522;SDS011;40093;43.224;27.910;2022-08-04T14:31:09;9.37;;;6.87;;
11522;SDS011;40093;43.224;27.910;2022-08-04T14:33:37;8.47;;;7.00;;
11522;SDS011;40093;43.224;27.910;2022-08-04T14:36:05;8.90;;;6.77;;
11522;SDS011;40093;43.224;27.910;2022-08-04T14:38:41;7.93;;;6.47;;
11522;SDS011;40093;43.224;27.910;2022-08-04T14:41:09;7.20;;;6.13;;
11522;SDS011;40093;43.224;27.910;2022-08-04T14:43:42;7.20;;;6.50;;
11522;SDS011;40093;43.224;27.910;2022-08-04T14:46:10;7.00;;;6.30;;
11522;SDS011;40093;43.224;27.910;2022-08-04T14:48:37;7.83;;;7.10;;
11522;SDS011;40093;43.224;27.910;2022-08-04T14:51:07;8.20;;;7.00;;
11522;SDS011;40093;43.224;27.910;2022-08-04T14:53:40;7.50;;;6.80;;
11522;SDS011;40093;43.224;27.910;2022-08-04T14:56:13;8.17;;;6.80;;
11522;SDS011;40093;43.224;27.910;2022-08-04T14:58:41;8.00;;;7.20;;
11522;SDS011;40093;43.224;27.910;2022-08-04T15:01:09;7.60;;;6.90;;
11522;SDS011;40093;43.224;27.910;2022-08-04T15:03:40;7.10;;;6.40;;
11522;SDS011;40093;43.224;27.910;2022-08-04T15:06:08;7.07;;;6.37;;
11522;SDS011;40093;43.224;27.910;2022-08-04T15:08:35;7.37;;;6.67;;
11522;SDS011;40093;43.224;27.910;2022-08-04T15:11:02;7.43;;;6.73;;
11522;SDS011;40093;43.224;27.910;2022-08-04T15:13:29;7.90;;;7.10;;
11522;SDS011;40093;43.224;27.910;2022-08-04T15:15:59;7.70;;;6.90;;
11522;SDS011;40093;43.224;27.910;2022-08-04T15:18:27;7.70;;;6.90;;
11522;SDS011;40093;43.224;27.910;2022-08-04T15:20:55;10.00;;;6.60;;
11522;SDS011;40093;43.224;27.910;2022-08-04T15:23:23;8.40;;;7.57;;
11522;SDS011;40093;43.224;27.910;2022-08-04T15:25:51;7.13;;;6.53;;
11522;SDS011;40093;43.224;27.910;2022-08-04T15:28:22;8.10;;;6.67;;
11522;SDS011;40093;43.224;27.910;2022-08-04T15:30:53;7.93;;;6.67;;
11522;SDS011;40093;43.224;27.910;2022-08-04T15:33:21;8.50;;;7.53;;
11522;SDS011;40093;43.224;27.910;2022-08-04T15:35:51;8.23;;;7.43;;
11522;SDS011;40093;43.224;27.910;2022-08-04T15:38:24;7.40;;;6.70;;
11522;SDS011;40093;43.224;27.910;2022-08-04T15:40:58;9.13;;;7.20;;
11522;SDS011;40093;43.224;27.910;2022-08-04T15:43:38;8.23;;;7.17;;
11522;SDS011;40093;43.224;27.910;2022-08-04T15:46:16;7.60;;;6.90;;
11522;SDS011;40093;43.224;27.910;2022-08-04T15:49:18;8.10;;;7.40;;
11522;SDS011;40093;43.224;27.910;2022-08-04T15:51:47;7.30;;;6.60;;